createdAt,value
2018-01-10T00:00:04.412Z,32.88
2018-01-10T00:02:33.496Z,32.92
2018-01-10T00:05:03.103Z,29.77
2018-01-10T00:07:32.572Z,31.02
2018-01-10T00:10:02.004Z,24.42
2018-01-10T00:12:31.431Z,36.90
2018-01-10T00:15:00.889Z,34.42
2018-01-10T00:17:30.483Z,33.58
2018-01-10T00:19:59.858Z,34.70
2018-01-10T00:22:29.251Z,35.83
2018-01-10T00:24:58.798Z,31.45
2018-01-10T00:27:28.258Z,34.10
2018-01-10T00:29:57.681Z,29.83
2018-01-10T00:32:27.073Z,28.52
2018-01-10T00:34:56.469Z,31.27
2018-01-10T00:37:25.899Z,30.12
2018-01-10T00:39:55.360Z,28.50
2018-01-10T00:42:24.781Z,29.30
2018-01-10T00:44:54.197Z,31.73
2018-01-10T00:47:23.593Z,35.13
2018-01-10T00:49:52.990Z,31.02
2018-01-10T00:52:22.423Z,29.20
2018-01-10T00:54:51.829Z,31.27
2018-01-10T00:57:21.215Z,31.58
2018-01-10T00:59:50.593Z,39.03
2018-01-10T01:02:20.020Z,31.65
2018-01-10T01:04:49.458Z,34.53
2018-01-10T01:07:18.874Z,37.83
2018-01-10T01:09:48.346Z,27.92
2018-01-10T01:12:17.745Z,36.20
2018-01-10T01:14:47.166Z,27.90
2018-01-10T01:17:17.396Z,36.65
2018-01-10T01:19:46.837Z,32.03
2018-01-10T01:22:16.215Z,32.55
2018-01-10T01:24:45.673Z,28.15
2018-01-10T01:27:15.110Z,31.35
2018-01-10T01:29:46.161Z,30.17
2018-01-10T01:32:15.568Z,30.33
2018-01-10T01:34:44.959Z,30.00
2018-01-10T01:37:15.165Z,34.22
2018-01-10T01:39:44.548Z,28.83
2018-01-10T01:42:13.941Z,28.25
2018-01-10T01:44:43.365Z,34.67
2018-01-10T01:47:12.752Z,28.38
2018-01-10T01:49:42.142Z,30.73
2018-01-10T01:52:11.529Z,28.15
2018-01-10T01:54:41.724Z,28.67
2018-01-10T01:57:11.131Z,33.88
2018-01-10T01:59:40.507Z,31.80
2018-01-10T02:02:10.686Z,32.50
2018-01-10T02:04:40.121Z,30.27
2018-01-10T02:07:09.582Z,29.45
2018-01-10T02:09:38.976Z,32.13
2018-01-10T02:12:08.385Z,31.12
2018-01-10T02:14:37.766Z,33.13
2018-01-10T02:17:07.212Z,33.67
2018-01-10T02:19:36.715Z,33.67
2018-01-10T02:22:06.123Z,35.55
2018-01-10T02:24:35.538Z,32.60
2018-01-10T02:27:04.920Z,32.53
2018-01-10T02:29:34.323Z,29.10
2018-01-10T02:32:03.715Z,32.42
2018-01-10T02:34:33.165Z,28.80
2018-01-10T02:37:03.303Z,38.47
2018-01-10T02:39:32.720Z,32.70
2018-01-10T02:42:03.035Z,32.78
2018-01-10T02:44:32.425Z,36.15
2018-01-10T02:47:02.557Z,31.58
2018-01-10T02:49:31.961Z,30.75
2018-01-10T02:52:01.405Z,34.25
2018-01-10T02:54:30.841Z,33.30
2018-01-10T02:57:00.298Z,29.42
2018-01-10T02:59:29.686Z,31.77
2018-01-10T03:01:59.118Z,30.85
2018-01-10T03:04:28.505Z,29.65
2018-01-10T03:06:57.893Z,30.25
2018-01-10T03:09:27.313Z,28.77
2018-01-10T03:11:56.739Z,29.50
2018-01-10T03:14:26.165Z,31.83
2018-01-10T03:16:55.645Z,29.90
2018-01-10T03:19:25.075Z,34.22
2018-01-10T03:21:54.442Z,27.80
2018-01-10T03:24:23.898Z,27.33
2018-01-10T03:26:54.055Z,29.77
2018-01-10T03:29:23.461Z,28.02
2018-01-10T03:31:52.842Z,33.30
2018-01-10T03:34:22.238Z,30.10
2018-01-10T03:36:51.645Z,30.35
2018-01-10T03:39:21.076Z,32.33
2018-01-10T03:41:50.513Z,36.80
2018-01-10T03:44:19.948Z,35.05
2018-01-10T03:46:49.367Z,31.65
2018-01-10T03:49:18.778Z,29.83
2018-01-10T03:51:48.164Z,27.45
2018-01-10T03:54:17.583Z,29.12
2018-01-10T03:56:47.041Z,34.67
2018-01-10T03:59:16.470Z,38.60
2018-01-10T04:01:45.908Z,31.33
2018-01-10T04:04:15.330Z,33.75
2018-01-10T04:06:44.761Z,29.08
2018-01-10T04:09:14.955Z,32.05
2018-01-10T04:11:44.343Z,30.40
2018-01-10T04:14:13.798Z,28.52
2018-01-10T04:16:43.177Z,31.15
2018-01-10T04:19:12.553Z,30.42
2018-01-10T04:21:42.036Z,29.23
2018-01-10T04:24:11.461Z,28.90
2018-01-10T04:26:40.908Z,28.58
2018-01-10T04:29:11.093Z,33.28
2018-01-10T04:31:40.532Z,31.10
2018-01-10T04:34:09.979Z,33.28
2018-01-10T04:36:39.411Z,31.58
2018-01-10T04:39:08.828Z,33.88
2018-01-10T04:41:38.250Z,37.55
2018-01-10T04:44:08.463Z,37.28
2018-01-10T04:46:38.759Z,36.50
2018-01-10T04:49:08.280Z,34.30
2018-01-10T04:51:37.698Z,34.90
2018-01-10T04:54:07.905Z,35.33
2018-01-10T04:56:37.475Z,33.83
2018-01-10T04:59:06.863Z,37.15
2018-01-10T05:01:36.270Z,35.90
2018-01-10T05:04:05.676Z,33.85
2018-01-10T05:06:35.074Z,35.45
2018-01-10T05:09:05.600Z,32.67
2018-01-10T05:11:34.964Z,37.33
2018-01-10T05:14:05.064Z,32.85
2018-01-10T05:16:34.443Z,37.97
2018-01-10T05:19:04.569Z,38.25
2018-01-10T05:21:33.953Z,34.20
2018-01-10T05:24:03.357Z,35.45
2018-01-10T05:26:32.726Z,34.50
2018-01-10T05:29:02.084Z,31.83
2018-01-10T05:31:31.432Z,31.17
2018-01-10T05:34:00.799Z,30.70
2018-01-10T05:36:30.151Z,35.30
2018-01-10T05:39:00.367Z,36.65
2018-01-10T05:41:29.766Z,36.53
2018-01-10T05:43:59.130Z,33.97
2018-01-10T05:46:28.493Z,37.90
2018-01-10T05:48:57.866Z,36.42
2018-01-10T05:51:28.068Z,32.65
2018-01-10T05:53:57.470Z,36.85
2018-01-10T05:56:27.591Z,30.75
2018-01-10T05:58:57.767Z,32.13
2018-01-10T06:01:27.154Z,32.20
2018-01-10T06:03:56.517Z,32.97
2018-01-10T06:06:25.926Z,31.37
2018-01-10T06:08:56.310Z,27.80
2018-01-10T06:11:26.307Z,22.52
2018-01-10T06:13:55.672Z,28.92
2018-01-10T06:16:25.072Z,31.12
2018-01-10T06:18:55.229Z,27.87
2018-01-10T06:21:24.648Z,26.50
2018-01-10T06:23:53.996Z,27.25
2018-01-10T06:26:24.182Z,27.92
2018-01-10T06:28:53.563Z,27.48
2018-01-10T06:31:22.962Z,26.87
2018-01-10T06:33:53.240Z,28.50
2018-01-10T06:36:23.373Z,30.27
2018-01-10T06:38:53.945Z,26.33
2018-01-10T06:41:23.297Z,30.25
2018-01-10T06:43:53.438Z,29.40
2018-01-10T06:46:22.824Z,31.50
2018-01-10T06:48:52.221Z,37.10
2018-01-10T06:51:22.361Z,30.52
2018-01-10T06:53:51.755Z,28.50
2018-01-10T06:56:21.148Z,28.58
2018-01-10T06:58:51.340Z,29.92
2018-01-10T07:01:20.752Z,30.77
2018-01-10T07:03:50.152Z,29.00
2018-01-10T07:06:20.439Z,30.48
2018-01-10T07:08:49.822Z,26.55
2018-01-10T07:11:19.189Z,32.65
2018-01-10T07:13:49.376Z,26.83
2018-01-10T07:16:18.786Z,31.50
2018-01-10T07:18:48.181Z,25.48
2018-01-10T07:21:17.549Z,29.08
2018-01-10T07:23:46.926Z,27.25
2018-01-10T07:26:17.091Z,25.10
2018-01-10T07:28:46.485Z,32.88
2018-01-10T07:31:15.849Z,27.95
2018-01-10T07:33:46.028Z,27.70
2018-01-10T07:36:15.414Z,28.25
2018-01-10T07:38:44.818Z,22.85
2018-01-10T07:41:14.210Z,30.02
2018-01-10T07:43:43.629Z,28.17
2018-01-10T07:46:13.036Z,30.25
2018-01-10T07:48:42.455Z,26.35
2018-01-10T07:51:11.833Z,31.70
2018-01-10T07:53:41.261Z,26.10
2018-01-10T07:56:10.679Z,25.33
2018-01-10T07:58:40.032Z,22.25
2018-01-10T08:01:09.526Z,27.20
2018-01-10T08:03:38.892Z,30.12
2018-01-10T08:06:08.296Z,22.92
2018-01-10T08:08:37.722Z,29.25
2018-01-10T08:11:07.150Z,27.35
2018-01-10T08:13:36.509Z,27.15
2018-01-10T08:16:05.885Z,35.00
2018-01-10T08:18:35.253Z,25.92
2018-01-10T08:21:04.666Z,34.88
2018-01-10T08:23:34.031Z,27.87
2018-01-10T08:26:04.215Z,25.88
2018-01-10T08:28:33.598Z,23.75
2018-01-10T08:31:03.326Z,28.83
2018-01-10T08:33:32.739Z,26.62
2018-01-10T08:36:02.128Z,24.48
2018-01-10T08:38:31.517Z,20.25
2018-01-10T08:41:00.880Z,22.25
2018-01-10T08:43:30.241Z,23.02
2018-01-10T08:45:59.605Z,22.23
2018-01-10T08:48:28.953Z,20.67
2018-01-10T08:50:58.321Z,23.73
2018-01-10T08:53:27.713Z,20.83
2018-01-10T08:55:57.119Z,19.62
2018-01-10T08:58:26.523Z,18.52
2018-01-10T09:00:55.914Z,23.60
2018-01-10T09:03:25.336Z,22.08
2018-01-10T09:05:54.675Z,20.50
2018-01-10T09:08:24.058Z,28.02
2018-01-10T09:10:53.482Z,21.90
2018-01-10T09:13:22.853Z,22.85
2018-01-10T09:15:52.217Z,20.48
2018-01-10T09:18:21.587Z,18.33
2018-01-10T09:20:50.998Z,24.75
2018-01-10T09:23:21.138Z,28.55
2018-01-10T09:25:50.545Z,20.85
2018-01-10T09:28:19.915Z,24.23
2018-01-10T09:30:49.288Z,25.23
2018-01-10T09:33:18.654Z,23.48
2018-01-10T09:35:48.886Z,23.67
2018-01-10T09:38:18.319Z,28.00
2018-01-10T09:40:47.721Z,21.48
2018-01-10T09:43:17.100Z,22.85
2018-01-10T09:45:46.487Z,23.40
2018-01-10T09:48:15.903Z,20.42
2018-01-10T09:50:45.272Z,25.20
2018-01-10T09:53:15.409Z,23.25
2018-01-10T09:55:44.817Z,24.73
2018-01-10T09:58:14.220Z,23.45
2018-01-10T10:00:43.610Z,23.25
2018-01-10T10:03:12.977Z,22.05
2018-01-10T10:05:42.349Z,24.77
2018-01-10T10:08:11.703Z,17.92
2018-01-10T10:10:41.077Z,24.17
2018-01-10T10:13:10.433Z,20.65
2018-01-10T10:15:39.820Z,21.08
2018-01-10T10:18:09.223Z,17.10
2018-01-10T10:20:38.582Z,16.52
2018-01-10T10:23:07.945Z,21.60
2018-01-10T10:25:37.375Z,27.20
2018-01-10T10:28:06.732Z,19.05
2018-01-10T10:30:36.846Z,18.10
2018-01-10T10:33:06.252Z,21.75
2018-01-10T10:35:35.600Z,21.42
2018-01-10T10:38:04.976Z,19.17
2018-01-10T10:40:34.336Z,22.35
2018-01-10T10:43:03.771Z,15.27
2018-01-10T10:45:33.111Z,20.00
2018-01-10T10:48:02.500Z,25.08
2018-01-10T10:50:31.857Z,17.20
2018-01-10T10:53:02.024Z,22.33
2018-01-10T10:55:31.434Z,21.27
2018-01-10T10:58:00.784Z,21.85
2018-01-10T11:00:30.964Z,18.08
2018-01-10T11:03:00.388Z,20.73
2018-01-10T11:05:29.726Z,19.52
2018-01-10T11:07:59.141Z,20.58
2018-01-10T11:10:28.568Z,19.75
2018-01-10T11:12:57.966Z,19.08
2018-01-10T11:15:27.311Z,20.10
2018-01-10T11:17:56.695Z,25.65
2018-01-10T11:20:26.127Z,23.33
2018-01-10T11:22:56.255Z,26.02
2018-01-10T11:25:25.669Z,17.05
2018-01-10T11:27:55.047Z,18.10
2018-01-10T11:30:24.404Z,21.50
2018-01-10T11:32:53.813Z,21.62
2018-01-10T11:35:23.211Z,20.05
2018-01-10T11:37:52.643Z,18.98
2018-01-10T11:40:22.058Z,21.27
2018-01-10T11:42:52.259Z,25.17
2018-01-10T11:45:21.646Z,24.95
2018-01-10T11:47:51.039Z,18.50
2018-01-10T11:50:20.411Z,18.45
2018-01-10T11:52:49.783Z,19.12
2018-01-10T11:55:19.171Z,19.65
2018-01-10T11:57:48.561Z,19.73
2018-01-10T12:00:17.947Z,15.10
2018-01-10T12:02:47.332Z,17.67
2018-01-10T12:05:16.742Z,17.98
2018-01-10T12:07:46.134Z,17.12
2018-01-10T12:10:15.504Z,23.85
2018-01-10T12:12:45.668Z,19.40
2018-01-10T12:15:15.047Z,15.00
2018-01-10T12:17:44.437Z,4.82
2018-01-10T12:20:13.868Z,4.40
2018-01-10T12:22:43.289Z,6.70
2018-01-10T12:25:12.684Z,2.97
2018-01-10T12:27:42.117Z,2.12
2018-01-10T12:30:11.498Z,3.33
2018-01-10T12:32:40.869Z,3.90
2018-01-10T12:35:10.281Z,3.75
2018-01-10T12:37:39.674Z,7.32
2018-01-10T12:40:09.106Z,2.78
2018-01-10T12:42:38.507Z,2.65
2018-01-10T12:45:07.855Z,5.32
2018-01-10T12:47:37.271Z,1.90
2018-01-10T12:50:07.024Z,3.20
2018-01-10T12:52:36.426Z,3.42
2018-01-10T12:55:05.815Z,3.30
2018-01-10T12:57:35.199Z,6.45
2018-01-10T13:00:04.558Z,3.67
2018-01-10T13:02:33.962Z,4.57
2018-01-10T13:05:03.350Z,4.65
2018-01-10T13:07:32.757Z,2.10
2018-01-10T13:10:02.167Z,2.67
2018-01-10T13:12:31.516Z,7.78
2018-01-10T13:15:00.919Z,4.60
2018-01-10T13:17:30.475Z,3.92
2018-01-10T13:19:59.842Z,5.80
2018-01-10T13:22:29.242Z,3.12
2018-01-10T13:24:58.706Z,3.30
2018-01-10T13:27:28.825Z,4.80
2018-01-10T13:29:58.204Z,10.57
2018-01-10T13:32:27.603Z,11.88
2018-01-10T13:34:57.013Z,13.40
2018-01-10T13:37:26.389Z,17.17
2018-01-10T13:39:55.753Z,14.13
2018-01-10T13:42:25.133Z,19.73
2018-01-10T13:44:54.503Z,12.80
2018-01-10T13:47:24.795Z,7.05
2018-01-10T13:49:54.178Z,8.48
2018-01-10T13:52:23.528Z,6.75
2018-01-10T13:54:53.745Z,6.80
2018-01-10T13:57:23.917Z,8.98
2018-01-10T13:59:53.353Z,5.20
2018-01-10T14:02:22.716Z,8.38
2018-01-10T14:04:53.198Z,7.87
2018-01-10T14:07:22.950Z,5.72
2018-01-10T14:09:53.106Z,13.00
2018-01-10T14:12:22.504Z,7.87
2018-01-10T14:14:51.883Z,6.70
2018-01-10T14:17:22.006Z,14.25
2018-01-10T14:19:51.408Z,9.80
2018-01-10T14:22:20.803Z,8.13
2018-01-10T14:24:50.181Z,8.93
2018-01-10T14:27:19.572Z,9.45
2018-01-10T14:29:48.955Z,10.80
2018-01-10T14:32:18.400Z,11.48
2018-01-10T14:34:47.763Z,9.68
2018-01-10T14:37:17.192Z,9.35
2018-01-10T14:39:46.537Z,9.15
2018-01-10T14:42:15.934Z,10.35
2018-01-10T14:44:45.358Z,14.48
2018-01-10T14:47:14.754Z,9.63
2018-01-10T14:49:44.158Z,10.90
2018-01-10T14:52:13.556Z,17.67
2018-01-10T14:54:42.908Z,22.30
2018-01-10T14:57:12.343Z,11.40
2018-01-10T14:59:41.706Z,49.28
2018-01-10T15:02:11.047Z,19.92
2018-01-10T15:04:41.207Z,19.92
2018-01-10T15:07:10.598Z,28.92
2018-01-10T15:09:39.968Z,43.85
2018-01-10T15:12:10.134Z,26.67
2018-01-10T15:14:39.521Z,24.37
2018-01-10T15:17:08.898Z,23.85
2018-01-10T15:19:38.314Z,22.87
2018-01-10T15:22:07.697Z,24.08
2018-01-10T15:24:37.876Z,26.12
2018-01-10T15:27:07.270Z,22.62
2018-01-10T15:29:36.630Z,19.05
2018-01-10T15:32:06.806Z,18.48
2018-01-10T15:34:36.155Z,21.12
2018-01-10T15:37:06.313Z,21.02
2018-01-10T15:39:35.715Z,17.25
2018-01-10T15:42:05.127Z,16.10
2018-01-10T15:44:34.478Z,24.52
2018-01-10T15:47:04.605Z,20.17
2018-01-10T15:49:34.013Z,26.80
2018-01-10T15:52:03.354Z,18.33
2018-01-10T15:54:33.698Z,23.52
2018-01-10T15:57:03.033Z,32.78
2018-01-10T15:59:32.411Z,22.62
2018-01-10T16:02:01.882Z,25.00
2018-01-10T16:04:31.305Z,27.55
2018-01-10T16:07:00.703Z,22.83
2018-01-10T16:09:30.119Z,16.95
2018-01-10T16:11:59.480Z,25.90
2018-01-10T16:14:28.851Z,22.92
2018-01-10T16:16:58.954Z,30.02
2018-01-10T16:19:29.073Z,32.15
2018-01-10T16:21:59.219Z,38.05
2018-01-10T16:24:28.619Z,33.70
2018-01-10T16:26:57.954Z,41.80
2018-01-10T16:29:27.344Z,34.65
2018-01-10T16:31:56.689Z,38.28
2018-01-10T16:34:26.055Z,28.12
2018-01-10T16:36:55.424Z,29.15
2018-01-10T16:39:25.554Z,22.05
2018-01-10T16:41:54.925Z,32.33
2018-01-10T16:44:24.290Z,20.65
2018-01-10T16:46:53.657Z,20.35
2018-01-10T16:49:23.026Z,24.67
2018-01-10T16:51:52.372Z,42.47
2018-01-10T16:54:21.742Z,33.88
2018-01-10T16:56:51.904Z,33.50
2018-01-10T16:59:21.303Z,20.15
2018-01-10T17:01:50.658Z,25.37
2018-01-10T17:04:21.658Z,25.85
2018-01-10T17:06:51.025Z,29.35
2018-01-10T17:09:20.416Z,22.58
2018-01-10T17:11:50.506Z,25.90
2018-01-10T17:14:19.893Z,23.52
2018-01-10T17:16:49.251Z,27.13
2018-01-10T17:19:18.679Z,24.65
2018-01-10T17:21:48.058Z,20.02
2018-01-10T17:24:17.453Z,27.60
2018-01-10T17:26:46.807Z,21.62
2018-01-10T17:29:16.170Z,31.45
2018-01-10T17:31:45.527Z,21.87
2018-01-10T17:34:15.070Z,22.52
2018-01-10T17:36:44.478Z,26.40
2018-01-10T17:39:13.879Z,24.42
2018-01-10T17:41:44.123Z,25.05
2018-01-10T17:44:13.467Z,23.30
2018-01-10T17:46:42.922Z,22.50
2018-01-10T17:49:12.312Z,19.17
2018-01-10T17:51:41.760Z,23.65
2018-01-10T17:54:11.168Z,22.17
2018-01-10T17:56:40.571Z,21.42
2018-01-10T17:59:10.028Z,24.17
2018-01-10T18:01:39.480Z,22.80
2018-01-10T18:04:08.918Z,19.75
2018-01-10T18:06:38.284Z,25.10
2018-01-10T18:09:07.811Z,26.00
2018-01-10T18:11:38.032Z,21.10
2018-01-10T18:14:08.432Z,23.90
2018-01-10T18:16:38.759Z,29.98
2018-01-10T18:19:09.157Z,25.40
2018-01-10T18:21:38.767Z,24.87
2018-01-10T18:24:08.391Z,19.05
2018-01-10T18:26:38.813Z,25.25
2018-01-10T18:29:08.580Z,24.15
2018-01-10T18:31:38.246Z,24.10
2018-01-10T18:34:07.813Z,25.98
2018-01-10T18:36:37.440Z,21.60
2018-01-10T18:39:07.014Z,33.20
2018-01-10T18:41:36.629Z,25.10
2018-01-10T18:44:06.371Z,27.33
2018-01-10T18:46:36.001Z,21.73
2018-01-10T18:49:05.664Z,27.02
2018-01-10T18:51:35.422Z,26.40
2018-01-10T18:54:05.807Z,25.52
2018-01-10T18:56:35.620Z,23.87
2018-01-10T18:59:05.307Z,27.90
2018-01-10T19:01:34.960Z,30.15
2018-01-10T19:04:05.411Z,23.33
2018-01-10T19:06:36.066Z,31.12
2018-01-10T19:09:05.764Z,24.23
2018-01-10T19:11:35.462Z,31.10
2018-01-10T19:14:05.102Z,30.30
2018-01-10T19:16:34.689Z,25.80
2018-01-10T19:19:04.326Z,21.48
2018-01-10T19:21:33.917Z,28.30
2018-01-10T19:24:03.431Z,20.05
2018-01-10T19:26:32.918Z,17.58
2018-01-10T19:29:02.329Z,16.05
2018-01-10T19:31:31.750Z,19.42
2018-01-10T19:34:01.118Z,17.23
2018-01-10T19:36:30.527Z,17.95
2018-01-10T19:38:59.949Z,16.23
2018-01-10T19:41:29.324Z,17.00
2018-01-10T19:43:58.696Z,19.98
2018-01-10T19:46:28.051Z,18.05
2018-01-10T19:48:58.177Z,16.95
2018-01-10T19:51:27.525Z,18.37
2018-01-10T19:53:56.931Z,15.70
2018-01-10T19:56:26.404Z,12.05
2018-01-10T19:58:55.774Z,15.25
2018-01-10T20:01:25.969Z,18.35
2018-01-10T20:03:55.355Z,34.72
2018-01-10T20:06:24.805Z,23.05
2018-01-10T20:08:54.178Z,21.37
2018-01-10T20:11:23.547Z,17.52
2018-01-10T20:13:52.898Z,20.75
2018-01-10T20:16:22.261Z,23.83
2018-01-10T20:18:51.634Z,28.08
2018-01-10T20:21:20.969Z,15.68
2018-01-10T20:23:50.358Z,24.08
2018-01-10T20:26:19.733Z,17.37
2018-01-10T20:28:49.056Z,15.13
2018-01-10T20:31:18.455Z,14.77
2018-01-10T20:33:47.813Z,15.82
2018-01-10T20:36:17.960Z,17.15
2018-01-10T20:38:47.289Z,9.50
2018-01-10T20:41:16.655Z,12.77
2018-01-10T20:43:46.764Z,13.75
2018-01-10T20:46:16.922Z,9.90
2018-01-10T20:48:46.254Z,15.38
2018-01-10T20:51:15.616Z,19.42
2018-01-10T20:53:45.001Z,24.50
2018-01-10T20:56:14.381Z,18.52
2018-01-10T20:58:43.744Z,15.48
2018-01-10T21:01:13.092Z,10.98
2018-01-10T21:03:43.245Z,10.45
2018-01-10T21:06:12.644Z,13.20
2018-01-10T21:08:42.001Z,14.30
2018-01-10T21:11:12.177Z,19.70
2018-01-10T21:13:41.567Z,15.88
2018-01-10T21:16:10.937Z,18.62
2018-01-10T21:18:40.296Z,13.80
2018-01-10T21:21:09.634Z,15.45
2018-01-10T21:23:38.968Z,17.05
2018-01-10T21:26:08.323Z,17.70
2018-01-10T21:28:37.675Z,16.58
2018-01-10T21:31:07.086Z,17.62
2018-01-10T21:33:36.455Z,15.52
2018-01-10T21:36:05.846Z,15.60
2018-01-10T21:38:35.216Z,13.43
2018-01-10T21:41:04.556Z,22.33
2018-01-10T21:43:34.680Z,16.08
2018-01-10T21:46:04.838Z,17.58
2018-01-10T21:48:34.207Z,19.23
2018-01-10T21:51:03.633Z,15.57
2018-01-10T21:53:32.997Z,18.45
2018-01-10T21:56:02.441Z,15.23
2018-01-10T21:58:31.792Z,17.70
2018-01-10T22:01:01.146Z,22.17
2018-01-10T22:03:30.534Z,18.58
2018-01-10T22:05:59.875Z,17.27
2018-01-10T22:08:29.225Z,14.35
2018-01-10T22:10:58.619Z,15.15
2018-01-10T22:13:28.023Z,17.83
2018-01-10T22:15:57.382Z,18.40
2018-01-10T22:18:26.719Z,21.98
2018-01-10T22:20:56.110Z,14.65
2018-01-10T22:23:25.506Z,16.05
2018-01-10T22:25:54.843Z,16.60
2018-01-10T22:28:24.168Z,14.60
2018-01-10T22:30:53.529Z,13.32
2018-01-10T22:33:22.905Z,19.15
2018-01-10T22:35:52.279Z,18.77
2018-01-10T22:38:21.680Z,14.85
2018-01-10T22:40:51.057Z,16.12
2018-01-10T22:43:20.442Z,17.83
2018-01-10T22:45:49.830Z,16.98
2018-01-10T22:48:19.203Z,21.12
2018-01-10T22:50:48.540Z,13.50
2018-01-10T22:53:17.969Z,17.95
2018-01-10T22:55:47.361Z,17.00
2018-01-10T22:58:16.758Z,15.35
2018-01-10T23:00:46.922Z,14.85
2018-01-10T23:03:16.301Z,25.98
2018-01-10T23:05:45.672Z,20.30
2018-01-10T23:08:15.019Z,15.45
2018-01-10T23:10:44.361Z,15.45
2018-01-10T23:13:13.718Z,17.23
2018-01-10T23:15:43.115Z,14.10
2018-01-10T23:18:12.454Z,17.62
2018-01-10T23:20:41.862Z,18.20
2018-01-10T23:23:11.944Z,18.37
2018-01-10T23:25:42.095Z,17.52
2018-01-10T23:28:11.509Z,17.87
2018-01-10T23:30:41.492Z,17.02
2018-01-10T23:33:10.838Z,13.38
2018-01-10T23:35:40.191Z,16.48
2018-01-10T23:38:09.557Z,17.40
2018-01-10T23:40:38.922Z,14.57
2018-01-10T23:43:08.305Z,16.80
2018-01-10T23:45:37.644Z,15.45
2018-01-10T23:48:07.021Z,19.67
2018-01-10T23:50:36.377Z,16.67
2018-01-10T23:53:05.714Z,18.10
2018-01-10T23:55:35.098Z,14.87
2018-01-10T23:58:04.459Z,18.70
